Altus, Oklahoma
Current Conditions -  °F | °C
As of 7:03 AM on Thursday 23 Oct 2014 (Local Time) from KLTS Reporting Station
Haze Haze  
Wind Chill: 57°   Ceiling: Unl
Heat Index: 57°   Visibility: 2mi
Dew Point: 57°   Wind: 2mph
Humidity: 100%   Direction: 80°E
Pressure: 30.09"   Gusts: NA
Location:  34.64°N, 99.33°W
Report Text: KLTS 231203Z 08002KT 2SM BR FEW044 14/14 A3009 RMK AO2A $
Loading
Personal Weather Stations






























Interactive Weather Map
Tropical Storm Tracking
New forecast layout! Learn more

10-Day Weather Forecast

Advertisements
Track Severe Weather on mobile